Time;durP1;ratioP1;P1;durP2;ratioP2;P2;SDS_P1;SDS_P2;PMS_P1;PMS_P2;Temp;Humidity;BMP_temperature;BMP_pressure;BME280_temperature;BME280_humidity;BME280_pressure;Samples;Min_cycle;Max_cycle;Signal;HPM_P1;HPM_P2
2020/03/28 00:00:38;;;;;;;54.1;9.7;;;;;;;8.19;61.68066;956.8638;;;;
2020/03/28 00:03:04;;;;;;;55.6;9.3;;;;;;;8.32;61.54004;956.9774;;;;
2020/03/28 00:05:29;;;;;;;59;10.2;;;;;;;8.22;61.66309;957.0058;;;;
2020/03/28 00:07:54;;;;;;;56.9;9.8;;;;;;;8.26;61.37012;957.0092;;;;
2020/03/28 00:10:19;;;;;;;54.5;9.3;;;;;;;8.26;61.2793;956.9532;;;;
2020/03/28 00:12:44;;;;;;;58.3;9.8;;;;;;;8.3;61.13477;956.9403;;;;
2020/03/28 00:15:10;;;;;;;57.2;10.1;;;;;;;8.23;61.25195;956.9534;;;;
2020/03/28 00:19:59;;;;;;;46.3;8.8;;;;;;;8.07;61.89453;956.9412;;;;
2020/03/28 00:22:24;;;;;;;56.9;9.8;;;;;;;8.05;62.2334;956.9661;;;;
2020/03/28 00:24:49;;;;;;;62.8;10.1;;;;;;;7.93;62.61621;956.9445;;;;
2020/03/28 00:27:14;;;;;;;60.6;10.7;;;;;;;7.78;65.0752;956.9302;;;;
2020/03/28 00:29:39;;;;;;;54;9.8;;;;;;;7.7;63.80664;956.9427;;;;
2020/03/28 00:32:05;;;;;;;54.8;9.5;;;;;;;7.73;63.48926;956.9084;;;;
2020/03/28 00:34:30;;;;;;;55.6;10;;;;;;;7.82;63.0127;956.9733;;;;
2020/03/28 00:36:55;;;;;;;58.8;9.8;;;;;;;7.65;63.79883;956.973;;;;
2020/03/28 00:39:20;;;;;;;61.1;10;;;;;;;7.56;64.18555;957.0078;;;;
2020/03/28 00:41:45;;;;;;;51.7;9.8;;;;;;;7.6;63.91602;957.0497;;;;
2020/03/28 00:44:10;;;;;;;62.9;9.9;;;;;;;7.47;64.8457;957.0744;;;;
2020/03/28 00:46:35;;;;;;;48.2;9.5;;;;;;;7.41;64.98535;957.0736;;;;
2020/03/28 00:49:00;;;;;;;54.2;10.6;;;;;;;7.28;66.00586;957.1002;;;;
2020/03/28 00:51:25;;;;;;;44.3;9.4;;;;;;;7.33;65.56641;957.0862;;;;
2020/03/28 00:53:50;;;;;;;51;9.3;;;;;;;7.38;64.99219;957.1135;;;;
2020/03/28 00:56:16;;;;;;;53.6;10.1;;;;;;;7.32;66.14844;957.0858;;;;
2020/03/28 00:58:41;;;;;;;60.3;10.2;;;;;;;7.27;65.91309;957.0789;;;;
2020/03/28 01:01:06;;;;;;;50.3;9.8;;;;;;;7.21;66.85059;957.0687;;;;
2020/03/28 01:03:31;;;;;;;49.1;8.8;;;;;;;7.19;67.37305;957.0628;;;;
2020/03/28 01:05:56;;;;;;;47.3;9.8;;;;;;;7.16;67.80176;957.0798;;;;
2020/03/28 01:08:21;;;;;;;45.2;8.3;;;;;;;7.09;67.83691;957.0999;;;;
2020/03/28 01:10:46;;;;;;;48.7;8.7;;;;;;;7.25;65.93262;957.0872;;;;
2020/03/28 01:13:11;;;;;;;42.9;8.6;;;;;;;7.36;65.18359;957.0742;;;;
2020/03/28 01:15:36;;;;;;;44.2;8.8;;;;;;;7.31;66.61523;957.0385;;;;
2020/03/28 01:18:01;;;;;;;49.4;9.9;;;;;;;7.19;67.7627;957.0338;;;;
2020/03/28 01:20:26;;;;;;;48.7;8.6;;;;;;;7.15;66.43164;957.0165;;;;
2020/03/28 01:22:51;;;;;;;48.2;9.1;;;;;;;7.28;65.58301;957.0717;;;;
2020/03/28 01:25:17;;;;;;;53.8;9.6;;;;;;;7.24;65.63281;957.0323;;;;
2020/03/28 01:27:41;;;;;;;50;9.4;;;;;;;7.22;65.60742;957.1219;;;;
2020/03/28 01:30:08;;;;;;;53.3;10;;;;;;;7.02;66.59277;957.1334;;;;
2020/03/28 01:32:51;;;;;;;56.2;10.1;;;;;;;6.94;66.56934;957.0875;;;;
2020/03/28 01:34:57;;;;;;;65.7;10.5;;;;;;;6.85;66.875;957.1075;;;;
2020/03/28 01:37:22;;;;;;;47.4;9.1;;;;;;;6.87;66.90039;957.0845;;;;
2020/03/28 01:39:47;;;;;;;54.8;10;;;;;;;6.82;67.13184;957.0909;;;;
2020/03/28 01:42:12;;;;;;;51.2;10;;;;;;;6.67;67.8623;957.1027;;;;
2020/03/28 01:44:37;;;;;;;40.9;9.2;;;;;;;6.81;67.24414;957.0891;;;;
2020/03/28 01:47:02;;;;;;;47.7;9;;;;;;;6.81;67.20996;957.0925;;;;
2020/03/28 01:49:27;;;;;;;41.1;9.1;;;;;;;6.82;67.22266;957.0974;;;;
2020/03/28 01:51:52;;;;;;;41.1;8.6;;;;;;;6.73;67.58691;957.1005;;;;
2020/03/28 01:54:17;;;;;;;49.1;8.8;;;;;;;6.7;67.59375;957.1186;;;;
2020/03/28 01:56:42;;;;;;;50.4;10;;;;;;;6.54;68.46777;957.1038;;;;
2020/03/28 01:59:07;;;;;;;49.6;9.6;;;;;;;6.72;67.5625;957.0242;;;;
2020/03/28 02:01:32;;;;;;;51.3;9.1;;;;;;;6.64;68.1416;957.0865;;;;
2020/03/28 02:03:58;;;;;;;43.6;9.1;;;;;;;6.48;69.29004;957.0396;;;;
2020/03/28 02:06:23;;;;;;;44.1;8.6;;;;;;;6.46;69.08301;957.0547;;;;
2020/03/28 02:08:48;;;;;;;47;8.6;;;;;;;6.4;69.4043;957.0513;;;;
2020/03/28 02:11:13;;;;;;;44.3;8.8;;;;;;;6.53;69.8916;957.0153;;;;
2020/03/28 02:13:38;;;;;;;36.7;8.1;;;;;;;6.51;68.83984;957.0438;;;;
2020/03/28 02:16:03;;;;;;;45.4;9.6;;;;;;;6.54;69.20898;957.0406;;;;
2020/03/28 02:18:28;;;;;;;47.5;9.5;;;;;;;6.57;68.25684;957.0569;;;;
2020/03/28 02:20:53;;;;;;;41.5;8.9;;;;;;;6.57;69.89746;957.0852;;;;
2020/03/28 02:23:18;;;;;;;43.5;8.9;;;;;;;6.36;70.05957;957.1323;;;;
2020/03/28 02:25:43;;;;;;;46.6;9.2;;;;;;;6.32;70.17578;957.1368;;;;
2020/03/28 02:28:09;;;;;;;41.6;8.9;;;;;;;6.52;68.80664;957.1088;;;;
2020/03/28 02:30:34;;;;;;;40.5;9.1;;;;;;;6.51;69.86621;957.0657;;;;
2020/03/28 02:32:59;;;;;;;42.1;9.2;;;;;;;6.4;69.33398;957.0906;;;;
2020/03/28 02:35:24;;;;;;;44.7;9.1;;;;;;;6.3;71.08594;957.1111;;;;
2020/03/28 02:37:58;;;;;;;43;8.4;;;;;;;6.25;71.09863;957.1425;;;;
2020/03/28 02:40:14;;;;;;;38.4;8.4;;;;;;;6.13;70.94336;957.1573;;;;
2020/03/28 02:42:39;;;;;;;42;8.3;;;;;;;6.35;68.80273;957.082;;;;
2020/03/28 02:45:04;;;;;;;40.8;9.3;;;;;;;6.14;70.87695;957.1264;;;;
2020/03/28 02:47:29;;;;;;;31.6;8.3;;;;;;;6.31;69.12598;957.1791;;;;
2020/03/28 02:49:54;;;;;;;43.2;8.6;;;;;;;6.37;68.23535;957.1414;;;;
2020/03/28 02:52:19;;;;;;;38.7;8.4;;;;;;;6.39;68.36523;957.1058;;;;
2020/03/28 02:54:44;;;;;;;36.6;8.6;;;;;;;6.3;69.01074;957.0438;;;;
2020/03/28 02:57:09;;;;;;;43.2;8.6;;;;;;;6.25;69.43652;957.0349;;;;
2020/03/28 02:59:34;;;;;;;33.6;8.1;;;;;;;6.17;69.41309;957.0385;;;;
2020/03/28 03:02:38;;;;;;;33.4;8.1;;;;;;;5.86;71.09277;957.0739;;;;
2020/03/28 03:05:03;;;;;;;40.7;8.3;;;;;;;5.94;71.43457;957.1367;;;;
2020/03/28 03:07:28;;;;;;;32.3;8.3;;;;;;;5.82;71.38086;957.1512;;;;
2020/03/28 03:09:53;;;;;;;36.8;9;;;;;;;5.72;71.74023;957.1351;;;;
2020/03/28 03:12:18;;;;;;;44.8;8.5;;;;;;;5.61;72.10938;957.1473;;;;
2020/03/28 03:14:43;;;;;;;42.1;9.5;;;;;;;5.48;73.29199;957.1277;;;;
2020/03/28 03:17:08;;;;;;;32.5;7.9;;;;;;;5.56;73.12402;957.1212;;;;
2020/03/28 03:19:34;;;;;;;37;8.8;;;;;;;5.52;73.24121;957.1886;;;;
2020/03/28 03:21:59;;;;;;;41;8.9;;;;;;;5.55;73.3623;957.269;;;;
2020/03/28 03:24:24;;;;;;;28.8;8.2;;;;;;;5.67;71.80078;957.2545;;;;
2020/03/28 03:26:49;;;;;;;37;7.9;;;;;;;5.68;71.83691;957.283;;;;
2020/03/28 03:29:14;;;;;;;35.7;8.1;;;;;;;5.82;70.7207;957.2473;;;;
2020/03/28 03:31:39;;;;;;;42.4;9.1;;;;;;;5.75;72.08594;957.2766;;;;
2020/03/28 03:34:04;;;;;;;35.7;8.3;;;;;;;5.64;71.8291;957.3311;;;;
2020/03/28 03:36:29;;;;;;;37.6;8.7;;;;;;;5.57;72.22852;957.265;;;;
2020/03/28 03:38:54;;;;;;;35.5;8.8;;;;;;;5.73;71.33203;957.3567;;;;
2020/03/28 03:41:19;;;;;;;41.1;9.3;;;;;;;5.76;70.50586;957.3229;;;;
2020/03/28 03:43:44;;;;;;;41.4;9.1;;;;;;;5.62;72.00781;957.3077;;;;
2020/03/28 03:48:35;;;;;;;36.7;9.4;;;;;;;5.58;72.33008;957.3499;;;;
2020/03/28 03:51:02;;;;;;;43.4;9.6;;;;;;;5.47;71.87988;957.359;;;;
2020/03/28 03:53:25;;;;;;;41.7;10.1;;;;;;;5.47;72.17578;957.3461;;;;
2020/03/28 03:55:50;;;;;;;35.3;8.9;;;;;;;5.45;72.34375;957.4175;;;;
2020/03/28 03:58:15;;;;;;;38;9.4;;;;;;;5.46;73.08301;957.3499;;;;
2020/03/28 04:02:26;;;;;;;35.7;8.5;;;;;;;5.41;73.88281;957.407;;;;
2020/03/28 04:04:51;;;;;;;37.2;8.7;;;;;;;5.25;73.63867;957.3473;;;;
2020/03/28 04:07:16;;;;;;;36.7;8.7;;;;;;;5.21;74.44141;957.3469;;;;
2020/03/28 04:09:41;;;;;;;31.2;8.8;;;;;;;5.22;74.38379;957.3656;;;;
2020/03/28 04:12:06;;;;;;;33.6;8.4;;;;;;;5.24;74.3418;957.3228;;;;
2020/03/28 04:14:31;;;;;;;32.3;8.7;;;;;;;5.18;74.55859;957.3239;;;;
2020/03/28 04:16:56;;;;;;;30.5;8.3;;;;;;;5.15;74.80469;957.3181;;;;
2020/03/28 04:19:21;;;;;;;34.2;8.2;;;;;;;5.04;74.91016;957.3044;;;;
2020/03/28 04:21:46;;;;;;;40.8;9.6;;;;;;;4.89;76.21191;957.3521;;;;
2020/03/28 04:24:12;;;;;;;35.1;9.1;;;;;;;4.91;75.99902;957.2519;;;;
2020/03/28 04:26:37;;;;;;;41.4;9.5;;;;;;;4.9;76.59961;957.3289;;;;
2020/03/28 04:29:02;;;;;;;41.3;9.5;;;;;;;4.84;76.0332;957.2986;;;;
2020/03/28 04:31:27;;;;;;;43.9;9.6;;;;;;;4.84;76.98633;957.3105;;;;
2020/03/28 04:33:52;;;;;;;32.8;8.8;;;;;;;4.77;77.31543;957.3516;;;;
2020/03/28 04:36:17;;;;;;;34.2;8.8;;;;;;;4.82;76.13086;957.3915;;;;
2020/03/28 04:38:42;;;;;;;38;10.1;;;;;;;4.88;76.02832;957.4213;;;;
2020/03/28 04:41:07;;;;;;;35.1;9.6;;;;;;;4.97;75.07715;957.4486;;;;
2020/03/28 04:43:33;;;;;;;43.8;10.3;;;;;;;4.95;76.47266;957.4535;;;;
2020/03/28 04:45:58;;;;;;;39.6;9.6;;;;;;;4.84;76.19043;957.455;;;;
2020/03/28 04:48:23;;;;;;;42.2;9.7;;;;;;;4.76;76.51758;957.4651;;;;
2020/03/28 04:50:48;;;;;;;40.8;10.3;;;;;;;4.71;76.99707;957.5302;;;;
2020/03/28 04:53:13;;;;;;;37.6;9.2;;;;;;;4.77;76.56445;957.5574;;;;
2020/03/28 04:55:38;;;;;;;46.4;10.3;;;;;;;4.73;76.47852;957.5803;;;;
2020/03/28 04:58:03;;;;;;;42.8;10.5;;;;;;;4.78;76.17969;957.6206;;;;
2020/03/28 05:00:28;;;;;;;41.7;10.6;;;;;;;4.73;77.35254;957.6167;;;;
2020/03/28 05:02:53;;;;;;;44.1;9.8;;;;;;;4.53;77.43164;957.6202;;;;
2020/03/28 05:05:18;;;;;;;50.1;11.1;;;;;;;4.65;76.80469;957.5875;;;;
2020/03/28 05:07:43;;;;;;;31.1;8.6;;;;;;;4.54;78.10156;957.6003;;;;
2020/03/28 05:10:09;;;;;;;41.6;10.6;;;;;;;4.63;77.67676;957.6312;;;;
2020/03/28 05:12:34;;;;;;;43.4;10.6;;;;;;;4.46;77.78223;957.6902;;;;
2020/03/28 05:14:59;;;;;;;41.8;10.1;;;;;;;4.52;78.68848;957.653;;;;
2020/03/28 05:17:24;;;;;;;45;10.3;;;;;;;4.47;77.90723;957.75;;;;
2020/03/28 05:19:49;;;;;;;42.5;10;;;;;;;4.45;78.13086;957.788;;;;
2020/03/28 05:22:14;;;;;;;35;9.6;;;;;;;4.6;78.05469;957.8243;;;;
2020/03/28 05:24:39;;;;;;;41.2;9.9;;;;;;;4.53;78.01855;957.8096;;;;
2020/03/28 05:27:04;;;;;;;41.3;10.6;;;;;;;4.55;78.64941;957.86;;;;
2020/03/28 05:29:29;;;;;;;30.7;9.8;;;;;;;4.59;78.20215;957.9009;;;;
2020/03/28 05:31:54;;;;;;;34.6;10.2;;;;;;;4.44;78.68457;957.8723;;;;
2020/03/28 05:34:20;;;;;;;44.1;10.4;;;;;;;4.53;77.96191;957.8693;;;;
2020/03/28 05:36:45;;;;;;;33.1;9;;;;;;;4.59;78.20215;957.8798;;;;
2020/03/28 05:39:10;;;;;;;34.8;9.8;;;;;;;4.63;78.08398;957.9329;;;;
2020/03/28 05:41:35;;;;;;;42.1;10.6;;;;;;;4.6;79.05469;957.9174;;;;
2020/03/28 05:44:00;;;;;;;45.9;10.2;;;;;;;4.53;78.15625;957.9719;;;;
2020/03/28 05:46:25;;;;;;;37.1;10.4;;;;;;;4.54;79.27051;957.9246;;;;
2020/03/28 05:48:50;;;;;;;49.3;10.8;;;;;;;4.51;79.07227;957.934;;;;
2020/03/28 05:51:15;;;;;;;47.5;11;;;;;;;4.49;79.90723;957.9641;;;;
2020/03/28 05:53:40;;;;;;;42.9;10.3;;;;;;;4.56;78.45605;958.0327;;;;
2020/03/28 05:56:05;;;;;;;34.7;9.7;;;;;;;4.64;78.5166;958.0416;;;;
2020/03/28 05:58:30;;;;;;;39.8;11;;;;;;;4.57;78.58496;958.1203;;;;
2020/03/28 06:00:55;;;;;;;31.5;9.7;;;;;;;4.68;78.16016;958.0818;;;;
2020/03/28 06:03:20;;;;;;;50.2;10.8;;;;;;;4.86;78.03418;958.0806;;;;
2020/03/28 06:05:46;;;;;;;37.3;9.1;;;;;;;4.96;76.73535;958.123;;;;
2020/03/28 06:08:11;;;;;;;44.3;10.6;;;;;;;5.04;77.71582;958.0875;;;;
2020/03/28 06:10:36;;;;;;;35.8;9.5;;;;;;;5;77.96973;958.0917;;;;
2020/03/28 06:13:01;;;;;;;33.7;9.6;;;;;;;5.07;76.74219;958.1507;;;;
2020/03/28 06:15:26;;;;;;;35.1;9.4;;;;;;;5.08;76.61035;958.1504;;;;
2020/03/28 06:17:51;;;;;;;41.7;10.3;;;;;;;5.28;74.94043;958.1838;;;;
2020/03/28 06:20:17;;;;;;;38.2;9.9;;;;;;;5.29;75.09961;958.1975;;;;
2020/03/28 06:22:41;;;;;;;45.7;10.9;;;;;;;5.22;75.74805;958.1992;;;;
2020/03/28 06:25:07;;;;;;;47.2;10.9;;;;;;;5.28;76.90625;958.2353;;;;
2020/03/28 06:27:32;;;;;;;40.7;10.4;;;;;;;5.28;75.97363;958.236;;;;
2020/03/28 06:29:57;;;;;;;35.3;10.1;;;;;;;5.4;75.26855;958.23;;;;
2020/03/28 06:32:22;;;;;;;40.5;10.5;;;;;;;5.47;74.96191;958.2213;;;;
2020/03/28 06:34:47;;;;;;;38.4;10.5;;;;;;;5.56;75.55859;958.1727;;;;
2020/03/28 06:37:12;;;;;;;37.3;9.5;;;;;;;5.59;74.67578;958.1916;;;;
2020/03/28 06:39:37;;;;;;;35.7;10.4;;;;;;;5.65;74.87988;958.1638;;;;
2020/03/28 06:42:02;;;;;;;37.5;9.2;;;;;;;5.73;73.10938;958.1458;;;;
2020/03/28 06:44:27;;;;;;;48.4;10.8;;;;;;;5.69;73.80566;958.1605;;;;
2020/03/28 06:46:52;;;;;;;39.7;10;;;;;;;5.72;74.15332;958.1852;;;;
2020/03/28 06:49:17;;;;;;;43.4;10.7;;;;;;;5.71;74.25391;958.2297;;;;
2020/03/28 06:51:43;;;;;;;41.3;10.1;;;;;;;5.77;73.11328;958.2342;;;;
2020/03/28 06:54:08;;;;;;;42.8;11;;;;;;;5.94;73.00586;958.2729;;;;
2020/03/28 06:56:33;;;;;;;40.7;10.9;;;;;;;6.11;72.12402;958.2166;;;;
2020/03/28 06:58:58;;;;;;;38.6;10.3;;;;;;;6.29;71.48145;958.3076;;;;
2020/03/28 07:01:23;;;;;;;45.5;10.4;;;;;;;6.23;70.73242;958.2933;;;;
2020/03/28 07:03:48;;;;;;;35.7;9.4;;;;;;;6.37;70.74316;958.3516;;;;
2020/03/28 07:06:13;;;;;;;45.2;10.3;;;;;;;6.48;71.3418;958.3403;;;;
2020/03/28 07:08:38;;;;;;;46.3;10.7;;;;;;;6.54;70.80664;958.3747;;;;
2020/03/28 07:11:03;;;;;;;39.2;10;;;;;;;6.63;70.48926;958.4059;;;;
2020/03/28 07:13:29;;;;;;;41.6;10.7;;;;;;;6.59;70.40332;958.4598;;;;
2020/03/28 07:15:54;;;;;;;41.6;10.2;;;;;;;6.7;70.01074;958.4322;;;;
2020/03/28 07:18:19;;;;;;;41.3;10.6;;;;;;;6.79;69.02148;958.4299;;;;
2020/03/28 07:20:44;;;;;;;36.3;10;;;;;;;6.96;68.72949;958.4949;;;;
2020/03/28 07:23:09;;;;;;;44.3;10.9;;;;;;;6.9;69.61035;958.4581;;;;
2020/03/28 07:25:34;;;;;;;40.1;10.9;;;;;;;6.95;69.59473;958.4785;;;;
2020/03/28 07:27:59;;;;;;;38.7;10.4;;;;;;;7.13;69.2002;958.4992;;;;
2020/03/28 07:30:24;;;;;;;38.9;9.7;;;;;;;7.15;69.02148;958.4749;;;;
2020/03/28 07:32:49;;;;;;;38.4;9.8;;;;;;;7.21;69.3291;958.5117;;;;
2020/03/28 07:35:14;;;;;;;43;10.7;;;;;;;7.22;68.13281;958.4559;;;;
2020/03/28 07:37:39;;;;;;;44.4;9.9;;;;;;;7.23;67.8584;958.5371;;;;
2020/03/28 07:40:04;;;;;;;42.6;9.5;;;;;;;7.23;67.80176;958.5662;;;;
2020/03/28 07:42:30;;;;;;;41.7;9.5;;;;;;;7.45;66.44336;958.5183;;;;
2020/03/28 07:44:55;;;;;;;35.5;9.4;;;;;;;7.46;67.81543;958.4929;;;;
2020/03/28 07:47:20;;;;;;;35;9.2;;;;;;;7.57;67.55859;958.5189;;;;
2020/03/28 07:49:45;;;;;;;43.1;10.3;;;;;;;7.77;64.49219;958.4627;;;;
2020/03/28 07:52:10;;;;;;;37.9;8.9;;;;;;;7.87;64.63281;958.4641;;;;
2020/03/28 07:54:35;;;;;;;40.6;9.7;;;;;;;7.78;62.59375;958.481;;;;
2020/03/28 07:57:00;;;;;;;39.2;9.4;;;;;;;7.8;62.94043;958.4539;;;;
2020/03/28 07:59:26;;;;;;;32.5;8;;;;;;;8.03;61.61328;958.4691;;;;
2020/03/28 08:01:51;;;;;;;37.8;7.8;;;;;;;8.07;60.53027;958.5292;;;;
2020/03/28 08:04:16;;;;;;;38.8;8.8;;;;;;;8.07;61.20605;958.5301;;;;
2020/03/28 08:06:41;;;;;;;36.3;8.4;;;;;;;8.26;61.44043;958.5637;;;;
2020/03/28 08:09:06;;;;;;;41.7;8.9;;;;;;;8.22;61.69727;958.5561;;;;
2020/03/28 08:11:31;;;;;;;32.1;8.3;;;;;;;8.28;60.57324;958.5592;;;;
2020/03/28 08:13:56;;;;;;;36.4;8.8;;;;;;;8.48;59.87891;958.5242;;;;
2020/03/28 08:16:21;;;;;;;42.5;8.9;;;;;;;8.62;60.81543;958.5587;;;;
2020/03/28 08:18:46;;;;;;;35.3;8;;;;;;;8.77;60.01074;958.5907;;;;
2020/03/28 08:21:11;;;;;;;37;9;;;;;;;8.6;59.72363;958.5953;;;;
2020/03/28 08:23:36;;;;;;;39;8.1;;;;;;;8.66;60.6377;958.6122;;;;
2020/03/28 08:26:01;;;;;;;36.7;8.4;;;;;;;8.79;60.11719;958.6353;;;;
2020/03/28 08:28:26;;;;;;;39.2;8.8;;;;;;;8.9;61.30078;958.6456;;;;
2020/03/28 08:30:52;;;;;;;34.6;8;;;;;;;8.84;59.4707;958.6216;;;;
2020/03/28 08:33:17;;;;;;;38.7;8.4;;;;;;;8.93;57.93457;958.5977;;;;
2020/03/28 08:35:42;;;;;;;44.9;9.6;;;;;;;8.87;57.59375;958.5597;;;;
2020/03/28 08:38:07;;;;;;;43;8.3;;;;;;;9.06;58.21582;958.564;;;;
2020/03/28 08:40:32;;;;;;;39.9;8.8;;;;;;;8.97;57.39063;958.5204;;;;
2020/03/28 08:42:57;;;;;;;37.9;9.2;;;;;;;9.18;56.72949;958.4675;;;;
2020/03/28 08:45:22;;;;;;;47.9;10.4;;;;;;;9.3;56.78027;958.567;;;;
2020/03/28 08:47:47;;;;;;;35.7;7.5;;;;;;;9.39;56.36621;958.5259;;;;
2020/03/28 08:50:12;;;;;;;37.4;8.3;;;;;;;9.36;55.55957;958.5293;;;;
2020/03/28 08:52:37;;;;;;;37.7;8.5;;;;;;;9.42;55.78613;958.4956;;;;
2020/03/28 08:55:02;;;;;;;46.4;9;;;;;;;9.53;56.30371;958.5217;;;;
2020/03/28 08:57:28;;;;;;;47.5;9;;;;;;;9.5;55.27832;958.5609;;;;
2020/03/28 08:59:53;;;;;;;36.5;9;;;;;;;9.54;55.25;958.5184;;;;
2020/03/28 09:02:48;;;;;;;37.5;8.1;;;;;;;9.66;56.17188;958.5201;;;;
2020/03/28 09:05:13;;;;;;;30.9;8.6;;;;;;;9.73;54.98633;958.5698;;;;
2020/03/28 09:07:38;;;;;;;41.9;9.2;;;;;;;9.84;54.32227;958.4808;;;;
2020/03/28 09:10:03;;;;;;;45.1;9;;;;;;;9.8;54.3418;958.476;;;;
2020/03/28 09:12:28;;;;;;;37.3;8.4;;;;;;;9.93;53.85254;958.4747;;;;
2020/03/28 09:14:54;;;;;;;37.2;8.4;;;;;;;10.08;54.83691;958.4678;;;;
2020/03/28 09:17:19;;;;;;;41.4;8.6;;;;;;;9.99;54.03125;958.4886;;;;
2020/03/28 09:19:44;;;;;;;36.2;8;;;;;;;10.19;54.50586;958.5186;;;;
2020/03/28 09:22:09;;;;;;;45.5;8.8;;;;;;;10.26;53.70801;958.5108;;;;
2020/03/28 09:24:34;;;;;;;44.7;8.7;;;;;;;10.4;53.57715;958.4656;;;;
2020/03/28 09:26:59;;;;;;;43.5;8.9;;;;;;;10.53;52.75293;958.4813;;;;
2020/03/28 09:29:24;;;;;;;35.8;8;;;;;;;10.67;53.25293;958.507;;;;
2020/03/28 09:31:49;;;;;;;37.9;8.4;;;;;;;10.7;53.08496;958.4774;;;;
2020/03/28 09:34:14;;;;;;;42.2;8.8;;;;;;;10.98;51.51758;958.4576;;;;
2020/03/28 09:36:40;;;;;;;45.2;9.5;;;;;;;10.73;52.52441;958.5112;;;;
2020/03/28 09:39:05;;;;;;;40.5;8.3;;;;;;;10.84;52.48047;958.4888;;;;
2020/03/28 09:41:30;;;;;;;43.3;8.9;;;;;;;10.99;52.11816;958.4584;;;;
2020/03/28 09:43:55;;;;;;;44.8;8.4;;;;;;;11.12;51.71777;958.4856;;;;
2020/03/28 09:46:20;;;;;;;38.8;8;;;;;;;11.11;52.58105;958.4595;;;;
2020/03/28 09:48:45;;;;;;;44.8;8.6;;;;;;;10.85;51.96191;958.4855;;;;
2020/03/28 09:51:10;;;;;;;44.8;9.6;;;;;;;10.94;52.42383;958.4413;;;;
2020/03/28 09:53:35;;;;;;;40.7;8.7;;;;;;;11.16;52.0459;958.457;;;;
2020/03/28 09:56:00;;;;;;;39.8;8.1;;;;;;;11.2;51.90137;958.425;;;;
2020/03/28 09:58:25;;;;;;;36.8;8;;;;;;;11.15;52.2998;958.4494;;;;
2020/03/28 10:00:51;;;;;;;42.7;8.6;;;;;;;11.2;52.2002;958.4796;;;;
2020/03/28 10:03:16;;;;;;;43.9;8;;;;;;;11;52.53418;958.4186;;;;
2020/03/28 10:05:41;;;;;;;36.3;7.9;;;;;;;11.23;52.14648;958.4319;;;;
2020/03/28 10:08:06;;;;;;;41.9;8.9;;;;;;;11.23;51.44336;958.3822;;;;
2020/03/28 10:10:31;;;;;;;44.1;8.8;;;;;;;11.24;52.30957;958.3936;;;;
2020/03/28 10:12:56;;;;;;;34.1;7.6;;;;;;;11.31;51.81055;958.3663;;;;
2020/03/28 10:15:21;;;;;;;43.7;8.4;;;;;;;11.35;51.93066;958.3447;;;;
2020/03/28 10:17:46;;;;;;;38.5;7.9;;;;;;;11.33;52.32031;958.3582;;;;
2020/03/28 10:20:11;;;;;;;42.5;8.6;;;;;;;11.55;52.16309;958.3133;;;;
2020/03/28 10:22:36;;;;;;;46.4;9.1;;;;;;;11.84;51.29688;958.355;;;;
2020/03/28 10:25:02;;;;;;;40.6;8.5;;;;;;;11.65;51.90918;958.3748;;;;
2020/03/28 10:27:27;;;;;;;46;8.8;;;;;;;11.53;52.13672;958.3055;;;;
2020/03/28 10:29:52;;;;;;;44.4;8.8;;;;;;;11.21;53.12402;958.2659;;;;
2020/03/28 10:32:17;;;;;;;46.8;8.7;;;;;;;11.48;53.75586;958.2623;;;;
2020/03/28 10:34:42;;;;;;;45;9.1;;;;;;;11.71;51.37305;958.2776;;;;
2020/03/28 10:37:07;;;;;;;39.7;8;;;;;;;11.68;51.69336;958.2748;;;;
2020/03/28 10:39:32;;;;;;;45.7;8.3;;;;;;;11.97;50.11035;958.2583;;;;
2020/03/28 10:41:57;;;;;;;35.8;7.6;;;;;;;11.83;50.1748;958.2358;;;;
2020/03/28 10:44:22;;;;;;;42.6;8;;;;;;;11.55;50.25879;958.2071;;;;
2020/03/28 10:46:47;;;;;;;34.4;7.7;;;;;;;11.63;50.6377;958.1933;;;;
2020/03/28 10:49:12;;;;;;;38;7.9;;;;;;;11.97;50.20313;958.1488;;;;
2020/03/28 10:51:38;;;;;;;40;7.8;;;;;;;12.08;50.05371;958.1678;;;;
2020/03/28 10:54:03;;;;;;;52.9;9.1;;;;;;;12.02;49.94336;958.1925;;;;
2020/03/28 10:56:28;;;;;;;44.8;8.1;;;;;;;12.06;48.85059;958.0967;;;;
2020/03/28 10:58:53;;;;;;;45.6;7.9;;;;;;;12.15;48.6543;958.065;;;;
2020/03/28 11:01:18;;;;;;;38.5;7.6;;;;;;;12.4;48.01074;958.1262;;;;
2020/03/28 11:03:43;;;;;;;49.8;8.2;;;;;;;12.54;47.96875;958.0745;;;;
2020/03/28 11:06:08;;;;;;;37.5;7.3;;;;;;;12.62;46.40527;958.0742;;;;
2020/03/28 11:08:33;;;;;;;44.1;7.8;;;;;;;12.69;46.19238;958.0872;;;;
2020/03/28 11:10:58;;;;;;;40.5;7.4;;;;;;;12.81;45.52148;958.1177;;;;
2020/03/28 11:13:23;;;;;;;34.3;6.9;;;;;;;12.83;44.24023;958.035;;;;
2020/03/28 11:15:49;;;;;;;39.1;7.3;;;;;;;12.95;44.62305;958.0457;;;;
2020/03/28 11:18:14;;;;;;;37.9;6.9;;;;;;;12.84;45.01758;958.0303;;;;
2020/03/28 11:20:39;;;;;;;43;7.4;;;;;;;12.75;45.53906;958.0689;;;;
2020/03/28 11:23:04;;;;;;;42.2;7;;;;;;;12.92;44.65527;958.0859;;;;
2020/03/28 11:25:29;;;;;;;43.1;7.2;;;;;;;13.11;44.59375;958.0658;;;;
2020/03/28 11:27:54;;;;;;;38.6;7.7;;;;;;;13.07;45.30762;957.983;;;;
2020/03/28 11:30:19;;;;;;;43.5;8.4;;;;;;;13.04;44.67871;957.9714;;;;
2020/03/28 11:32:44;;;;;;;47.2;7.3;;;;;;;12.8;44.26074;958.0154;;;;
2020/03/28 11:35:09;;;;;;;46.7;7.5;;;;;;;13.12;43.79492;957.9594;;;;
2020/03/28 11:37:34;;;;;;;38.1;7.3;;;;;;;12.94;45.07324;958.0359;;;;
2020/03/28 11:39:59;;;;;;;38.5;7.7;;;;;;;13.05;45.26953;957.9788;;;;
2020/03/28 11:42:24;;;;;;;40.6;6.8;;;;;;;13.26;43.66992;958.0033;;;;
2020/03/28 11:44:50;;;;;;;34.6;6.6;;;;;;;13.22;43.38867;957.9363;;;;
2020/03/28 11:47:15;;;;;;;39.9;7.5;;;;;;;13.33;44.32617;957.902;;;;
2020/03/28 11:49:40;;;;;;;38.9;7.6;;;;;;;13.47;43.04395;957.9455;;;;
2020/03/28 11:52:05;;;;;;;42.8;7.3;;;;;;;13.61;42.26855;957.9623;;;;
2020/03/28 11:54:30;;;;;;;37.5;7.1;;;;;;;13.5;43.13965;957.9456;;;;
2020/03/28 11:56:55;;;;;;;39.3;7.5;;;;;;;13.33;43.62012;957.8995;;;;
2020/03/28 11:59:20;;;;;;;42.3;7.6;;;;;;;13.21;44.62695;957.9501;;;;
2020/03/28 12:01:45;;;;;;;38.3;7.8;;;;;;;13.47;43.9707;957.9192;;;;
2020/03/28 12:04:10;;;;;;;38;7.6;;;;;;;13.28;45.44531;957.8772;;;;
2020/03/28 12:06:36;;;;;;;38.6;6.7;;;;;;;13.57;42.51953;957.8558;;;;
2020/03/28 12:09:01;;;;;;;35;6.7;;;;;;;13.77;41.76172;957.8289;;;;
2020/03/28 12:11:26;;;;;;;36.1;6.8;;;;;;;13.59;42.4873;957.7503;;;;
2020/03/28 12:13:51;;;;;;;35.4;6.8;;;;;;;13.53;43.03809;957.8394;;;;
2020/03/28 12:16:16;;;;;;;36.2;7.1;;;;;;;13.42;42.69141;957.8248;;;;
2020/03/28 12:18:41;;;;;;;38.5;6.9;;;;;;;13.54;41.24219;957.7476;;;;
2020/03/28 12:21:06;;;;;;;33.7;6.1;;;;;;;13.58;43.43652;957.7324;;;;
2020/03/28 12:23:31;;;;;;;28;5.7;;;;;;;13.98;40.4707;957.6789;;;;
2020/03/28 12:25:56;;;;;;;29.6;6.1;;;;;;;13.85;39.97266;957.7244;;;;
2020/03/28 12:28:21;;;;;;;31.7;6.5;;;;;;;14.02;39.89648;957.7075;;;;
2020/03/28 12:30:46;;;;;;;36.2;6;;;;;;;14.01;42.73535;957.6494;;;;
2020/03/28 12:33:12;;;;;;;29.8;5.7;;;;;;;14.19;41.29199;957.6292;;;;
2020/03/28 12:35:37;;;;;;;30.1;6.3;;;;;;;14.02;40.84766;957.6484;;;;
2020/03/28 12:38:02;;;;;;;24.7;5.9;;;;;;;14.23;40.85449;957.6072;;;;
2020/03/28 12:40:27;;;;;;;34.1;6.1;;;;;;;14.15;40.39453;957.5831;;;;
2020/03/28 12:42:52;;;;;;;29.2;5.6;;;;;;;14.1;40.61133;957.5848;;;;
2020/03/28 12:45:17;;;;;;;30.7;5.8;;;;;;;14.04;40.52441;957.5446;;;;
2020/03/28 12:47:42;;;;;;;30.5;6.2;;;;;;;13.85;41.5957;957.4948;;;;
2020/03/28 12:50:07;;;;;;;34.7;5.8;;;;;;;14.1;40.71484;957.5685;;;;
2020/03/28 12:52:32;;;;;;;38.4;6.6;;;;;;;14.15;40.94043;957.5539;;;;
2020/03/28 12:54:57;;;;;;;33.6;6.3;;;;;;;14.06;41.02344;957.5691;;;;
2020/03/28 12:57:22;;;;;;;31.3;6;;;;;;;13.98;41.70117;957.5338;;;;
2020/03/28 12:59:50;;;;;;;26.9;6.6;;;;;;;13.95;41.54688;957.5148;;;;
2020/03/28 13:02:12;;;;;;;26.3;5.8;;;;;;;13.92;42.51953;957.459;;;;
2020/03/28 13:04:38;;;;;;;34.5;6;;;;;;;14.16;41.67188;957.4285;;;;
2020/03/28 13:07:03;;;;;;;31.5;5.7;;;;;;;14.18;41.39551;957.3867;;;;
2020/03/28 13:09:28;;;;;;;30.1;5.4;;;;;;;14.31;39.2373;957.4205;;;;
2020/03/28 13:11:53;;;;;;;28.5;6;;;;;;;14.26;39.5459;957.3752;;;;
2020/03/28 13:14:18;;;;;;;25;5.2;;;;;;;14.33;39.93555;957.337;;;;
2020/03/28 13:16:43;;;;;;;28.2;5.9;;;;;;;14.45;40.35254;957.3411;;;;
2020/03/28 13:19:08;;;;;;;27.7;5.7;;;;;;;14.37;40.62402;957.2967;;;;
2020/03/28 13:21:33;;;;;;;33.7;6.4;;;;;;;14.59;39.94727;957.2773;;;;
2020/03/28 13:23:58;;;;;;;33;5.8;;;;;;;14.44;41.16504;957.3228;;;;
2020/03/28 13:26:23;;;;;;;30.6;6;;;;;;;14.43;41.19824;957.2975;;;;
2020/03/28 13:28:48;;;;;;;28.8;6.1;;;;;;;14.59;40.69238;957.3141;;;;
2020/03/28 13:31:13;;;;;;;31.3;6.2;;;;;;;14.48;40.69238;957.3122;;;;
2020/03/28 13:33:39;;;;;;;31.8;6.2;;;;;;;14.54;40.1875;957.2717;;;;
2020/03/28 13:36:04;;;;;;;24.3;5.5;;;;;;;14.58;40.27148;957.2216;;;;
2020/03/28 13:38:29;;;;;;;34.9;6.9;;;;;;;14.46;41.41016;957.1648;;;;
2020/03/28 13:40:54;;;;;;;28.1;5.3;;;;;;;14.59;41.59766;957.1526;;;;
2020/03/28 13:43:19;;;;;;;27.6;5.5;;;;;;;14.5;41.27441;957.2015;;;;
2020/03/28 13:45:44;;;;;;;31.8;5.8;;;;;;;14.29;41.44043;957.1415;;;;
2020/03/28 13:48:09;;;;;;;27.9;6.1;;;;;;;14.61;40.68164;957.0789;;;;
2020/03/28 13:50:34;;;;;;;28.8;6.5;;;;;;;14.9;39.89551;957.0703;;;;
2020/03/28 13:52:59;;;;;;;24.2;5.3;;;;;;;14.75;40.31055;957.0622;;;;
2020/03/28 13:55:24;;;;;;;28.4;5.8;;;;;;;14.67;40.10645;957.0944;;;;
2020/03/28 13:57:49;;;;;;;27.4;6.1;;;;;;;14.56;40.02539;957.1223;;;;
2020/03/28 14:00:14;;;;;;;31;6;;;;;;;14.4;40.55664;957.1197;;;;
2020/03/28 14:02:40;;;;;;;28.4;6;;;;;;;14.31;40.90918;957.122;;;;
2020/03/28 14:05:05;;;;;;;26.3;5.3;;;;;;;14.5;39.69434;957.0449;;;;
2020/03/28 14:07:31;;;;;;;29.8;5.5;;;;;;;14.61;39.6709;957.0355;;;;
2020/03/28 14:09:56;;;;;;;29.5;5.9;;;;;;;14.87;39.22852;956.9659;;;;
2020/03/28 14:12:21;;;;;;;27.9;6.2;;;;;;;14.73;40.0293;957.0238;;;;